Time;durP1;ratioP1;P1;durP2;ratioP2;P2;SDS_P1;SDS_P2;PMS_P1;PMS_P2;Temp;Humidity;BMP_temperature;BMP_pressure;BME280_temperature;BME280_humidity;BME280_pressure;Samples;Min_cycle;Max_cycle;Signal;HPM_P1;HPM_P2
2023/03/17 00:01:04;;;;;;;5.78;3.08;;;7.40;96.20;;;;;;4968786;28;20027;-71
2023/03/17 00:03:32;;;;;;;5.72;3.45;;;7.40;95.70;;;;;;4969545;28;20035;-71
2023/03/17 00:05:59;;;;;;;5.80;3.17;;;7.40;95.70;;;;;;4968756;28;20038;-72
2023/03/17 00:08:36;;;;;;;4.80;2.92;;;7.50;96.00;;;;;;4970149;28;20577;-72
2023/03/17 00:11:01;;;;;;;5.20;2.90;;;7.50;95.80;;;;;;4972163;28;20149;-72
2023/03/17 00:13:27;;;;;;;5.93;3.13;;;7.50;95.90;;;;;;4971686;28;20086;-71
2023/03/17 00:15:58;;;;;;;4.35;3.13;;;7.50;95.70;;;;;;4968051;28;20033;-72
2023/03/17 00:18:23;;;;;;;4.97;3.50;;;7.50;96.00;;;;;;4966930;28;20023;-72
2023/03/17 00:20:50;;;;;;;5.55;3.30;;;7.50;96.20;;;;;;4966551;28;20078;-72
2023/03/17 00:23:23;;;;;;;6.57;3.28;;;7.50;95.90;;;;;;4970124;28;20054;-72
2023/03/17 00:25:50;;;;;;;7.60;3.15;;;7.50;95.90;;;;;;4966745;28;20135;-72
2023/03/17 00:28:21;;;;;;;5.38;3.25;;;7.50;95.90;;;;;;4966295;28;20415;-72
2023/03/17 00:30:51;;;;;;;5.22;3.30;;;7.50;95.80;;;;;;4981211;28;20133;-72
2023/03/17 00:33:18;;;;;;;5.35;3.40;;;7.40;95.70;;;;;;4967671;28;20031;-72
2023/03/17 00:35:45;;;;;;;4.32;2.90;;;7.50;96.10;;;;;;4965349;28;20023;-71
2023/03/17 00:38:16;;;;;;;7.22;3.60;;;7.40;95.60;;;;;;4962904;28;20503;-72
2023/03/17 00:40:43;;;;;;;5.88;3.28;;;7.40;96.00;;;;;;4967180;28;20035;-72
2023/03/17 00:43:09;;;;;;;4.78;3.20;;;7.50;96.00;;;;;;4966132;28;20423;-71
2023/03/17 00:45:35;;;;;;;6.03;3.28;;;7.40;96.00;;;;;;4965322;28;20039;-72
2023/03/17 00:48:02;;;;;;;5.88;3.47;;;7.50;95.80;;;;;;4963218;28;20027;-71
2023/03/17 00:50:28;;;;;;;6.43;3.13;;;7.50;95.80;;;;;;4963899;28;20019;-72
2023/03/17 00:52:56;;;;;;;4.88;3.13;;;7.40;95.60;;;;;;4968405;28;20086;-72
2023/03/17 00:55:24;;;;;;;6.03;3.03;;;7.50;95.60;;;;;;4968890;28;20031;-72
2023/03/17 00:57:50;;;;;;;5.30;3.38;;;7.40;95.80;;;;;;4966695;28;20023;-72
2023/03/17 01:00:25;;;;;;;7.95;3.22;;;7.50;95.80;;;;;;4966088;28;20023;-72
2023/03/17 01:02:53;;;;;;;4.38;3.10;;;7.50;95.60;;;;;;4964521;28;20543;-71
2023/03/17 01:05:21;;;;;;;7.30;3.63;;;7.40;95.50;;;;;;4964788;28;20065;-72
2023/03/17 01:07:51;;;;;;;7.32;2.95;;;7.40;95.60;;;;;;4966613;28;20098;-71
2023/03/17 01:10:27;;;;;;;4.80;2.97;;;7.50;96.00;;;;;;4965402;28;20117;-71
2023/03/17 01:12:56;;;;;;;3.53;2.70;;;7.40;95.80;;;;;;4966767;28;20126;-71
2023/03/17 01:15:24;;;;;;;4.32;2.80;;;7.40;96.00;;;;;;4967066;28;20023;-71
2023/03/17 01:17:51;;;;;;;4.40;3.15;;;7.40;96.00;;;;;;4965526;28;20121;-71
2023/03/17 01:20:23;;;;;;;6.78;3.20;;;7.40;96.20;;;;;;4965347;28;20019;-71
2023/03/17 01:22:49;;;;;;;5.03;3.10;;;7.40;96.10;;;;;;4964303;28;20045;-71
2023/03/17 01:25:16;;;;;;;6.03;3.17;;;7.40;96.20;;;;;;4967644;28;20031;-72
2023/03/17 01:27:43;;;;;;;4.78;3.10;;;7.40;96.70;;;;;;4962937;28;20046;-71
2023/03/17 01:30:26;;;;;;;7.90;3.40;;;7.40;96.30;;;;;;4961212;28;20046;-71
2023/03/17 01:32:52;;;;;;;4.82;2.90;;;7.40;96.20;;;;;;4965678;28;20434;-71
2023/03/17 01:35:19;;;;;;;5.55;3.13;;;7.40;96.20;;;;;;4966253;28;20097;-71
2023/03/17 01:37:45;;;;;;;6.72;3.05;;;7.30;96.50;;;;;;4964636;28;20031;-72
2023/03/17 01:40:19;;;;;;;8.07;4.32;;;7.30;96.60;;;;;;4967450;28;20112;-71
2023/03/17 01:43:17;;;;;;;7.63;4.22;;;7.20;97.30;;;;;;4968181;28;20113;-71
2023/03/17 01:46:19;;;;;;;9.07;3.85;;;7.20;97.60;;;;;;4965471;28;20141;-71
2023/03/17 01:49:04;;;;;;;9.60;4.93;;;6.90;98.40;;;;;;4964425;28;20941;-71
2023/03/17 01:51:51;;;;;;;6.88;4.10;;;6.90;98.80;;;;;;4966540;28;20030;-72
2023/03/17 01:54:29;;;;;;;6.65;4.03;;;6.80;98.90;;;;;;4971035;28;20022;-72
2023/03/17 01:56:59;;;;;;;7.18;4.13;;;6.60;99.30;;;;;;4970206;28;20019;-71
2023/03/17 01:59:31;;;;;;;8.13;4.18;;;6.50;99.70;;;;;;4966952;28;20106;-71
2023/03/17 02:02:02;;;;;;;7.38;3.97;;;6.40;99.90;;;;;;4967653;28;20039;-71
2023/03/17 02:04:28;;;;;;;7.82;4.10;;;6.30;99.90;;;;;;4970946;28;20074;-71
2023/03/17 02:06:56;;;;;;;8.82;4.55;;;6.30;99.90;;;;;;4969490;28;20042;-71
2023/03/17 02:09:22;;;;;;;9.07;4.72;;;6.20;99.90;;;;;;4969864;28;20109;-73
2023/03/17 02:11:48;;;;;;;8.68;4.40;;;6.20;99.90;;;;;;4971030;28;20121;-73
2023/03/17 02:14:13;;;;;;;9.57;4.53;;;6.20;99.90;;;;;;4968867;28;20505;-72
2023/03/17 02:16:39;;;;;;;7.18;4.47;;;6.10;99.90;;;;;;4966985;28;20073;-72
2023/03/17 02:19:05;;;;;;;8.75;4.35;;;6.10;99.90;;;;;;4967412;28;20547;-73
2023/03/17 02:21:41;;;;;;;7.18;4.05;;;6.00;99.90;;;;;;4968807;28;20030;-72
2023/03/17 02:24:16;;;;;;;8.18;4.32;;;6.00;99.90;;;;;;4966406;28;20033;-73
2023/03/17 02:26:44;;;;;;;9.77;4.75;;;6.00;99.90;;;;;;4969380;28;20487;-73
2023/03/17 02:29:10;;;;;;;8.82;4.25;;;6.00;99.90;;;;;;4965294;28;20051;-72
2023/03/17 02:31:35;;;;;;;10.75;4.18;;;6.00;99.90;;;;;;4968293;28;20069;-73
2023/03/17 02:34:01;;;;;;;6.43;3.95;;;6.00;99.90;;;;;;4967972;28;20090;-73
2023/03/17 02:36:27;;;;;;;7.18;3.70;;;5.90;99.90;;;;;;4971346;28;20031;-72
2023/03/17 02:38:53;;;;;;;9.55;4.45;;;5.90;99.90;;;;;;4968150;28;20031;-73
2023/03/17 02:41:19;;;;;;;9.45;4.25;;;5.90;99.90;;;;;;4968478;28;20034;-73
2023/03/17 02:43:45;;;;;;;8.80;4.55;;;5.90;99.90;;;;;;4984590;28;20030;-71
2023/03/17 02:46:11;;;;;;;9.77;4.38;;;5.80;99.90;;;;;;4965830;28;20031;-71
2023/03/17 02:48:38;;;;;;;8.38;4.47;;;5.80;99.90;;;;;;4967269;28;20484;-71
2023/03/17 02:51:04;;;;;;;7.82;4.22;;;5.70;99.90;;;;;;4968468;28;21232;-72
2023/03/17 02:53:30;;;;;;;8.40;4.53;;;5.70;99.90;;;;;;4971139;28;20030;-71
2023/03/17 02:55:56;;;;;;;7.05;4.15;;;5.70;99.90;;;;;;4968443;28;20035;-71
2023/03/17 02:58:22;;;;;;;7.82;3.75;;;5.70;99.90;;;;;;4966398;28;20043;-71
2023/03/17 03:00:48;;;;;;;7.55;4.25;;;5.60;99.90;;;;;;4965371;28;20602;-71
2023/03/17 03:03:14;;;;;;;7.78;4.32;;;5.60;99.90;;;;;;4968436;28;20106;-72
2023/03/17 03:05:41;;;;;;;9.00;4.15;;;5.60;99.90;;;;;;4969679;28;20022;-72
2023/03/17 03:08:07;;;;;;;8.70;4.38;;;5.50;99.90;;;;;;4966813;28;20099;-71
2023/03/17 03:10:33;;;;;;;10.18;4.97;;;5.60;99.90;;;;;;4968958;28;20023;-72
2023/03/17 03:12:58;;;;;;;10.57;3.72;;;5.60;99.90;;;;;;4969873;28;20842;-71
2023/03/17 03:15:24;;;;;;;8.60;3.97;;;5.50;99.90;;;;;;4968912;28;20113;-71
2023/03/17 03:17:50;;;;;;;7.30;4.47;;;5.50;99.90;;;;;;4969481;28;20630;-72
2023/03/17 03:20:17;;;;;;;7.78;3.92;;;5.50;99.90;;;;;;4964733;28;20678;-71
2023/03/17 03:22:43;;;;;;;8.23;4.47;;;5.50;99.90;;;;;;4967516;28;20080;-72
2023/03/17 03:25:08;;;;;;;6.03;4.13;;;5.50;99.90;;;;;;4969147;28;20030;-71
2023/03/17 03:27:34;;;;;;;7.38;4.20;;;5.50;99.90;;;;;;4967745;28;20039;-71
2023/03/17 03:30:00;;;;;;;7.75;4.85;;;5.50;99.90;;;;;;4966615;28;20034;-71
2023/03/17 03:32:27;;;;;;;8.27;4.75;;;5.50;99.90;;;;;;4967117;28;20082;-72
2023/03/17 03:34:53;;;;;;;7.38;3.95;;;5.50;99.90;;;;;;4966509;28;20120;-72
2023/03/17 03:37:18;;;;;;;12.23;4.68;;;5.40;99.90;;;;;;4968861;28;20361;-72
2023/03/17 03:39:44;;;;;;;8.07;4.05;;;5.50;99.90;;;;;;4967440;28;20102;-72
2023/03/17 03:42:10;;;;;;;11.77;4.72;;;5.40;99.90;;;;;;4969422;28;20081;-72
2023/03/17 03:44:36;;;;;;;9.35;5.07;;;5.40;99.90;;;;;;4969314;28;20034;-72
2023/03/17 03:47:01;;;;;;;8.40;4.68;;;5.40;99.90;;;;;;4969322;28;20061;-72
2023/03/17 03:49:27;;;;;;;6.53;3.90;;;5.40;99.90;;;;;;4997695;23;20125;-77
2023/03/17 03:51:53;;;;;;;7.43;4.57;;;5.40;99.90;;;;;;4970202;28;20027;-77
2023/03/17 03:54:18;;;;;;;8.48;4.28;;;5.40;99.90;;;;;;4962988;28;20039;-77
2023/03/17 03:56:44;;;;;;;9.45;4.22;;;5.30;99.90;;;;;;4958159;28;20092;-76
2023/03/17 03:59:10;;;;;;;7.93;3.72;;;5.30;99.90;;;;;;4953472;28;20036;-77
2023/03/17 04:01:36;;;;;;;10.07;4.55;;;5.20;99.90;;;;;;4949363;28;20102;-77
2023/03/17 04:04:01;;;;;;;12.95;5.13;;;5.20;99.90;;;;;;4951137;28;20034;-77
2023/03/17 04:06:27;;;;;;;8.70;4.15;;;5.10;99.90;;;;;;4953541;28;20028;-79
2023/03/17 04:08:53;;;;;;;10.90;4.10;;;5.10;99.90;;;;;;4953523;28;20130;-78
2023/03/17 04:11:18;;;;;;;7.28;4.07;;;5.10;99.90;;;;;;4975798;28;20042;-77
2023/03/17 04:13:44;;;;;;;7.60;4.18;;;5.00;99.90;;;;;;4972163;28;20404;-76
2023/03/17 04:16:10;;;;;;;10.23;4.03;;;5.00;99.90;;;;;;4975972;28;20062;-77
2023/03/17 04:18:36;;;;;;;8.07;4.47;;;5.00;99.90;;;;;;4974060;28;20039;-77
2023/03/17 04:21:01;;;;;;;8.27;4.80;;;5.00;99.90;;;;;;4978410;28;20015;-77
2023/03/17 04:23:27;;;;;;;9.82;4.97;;;4.90;99.90;;;;;;4963842;28;20094;-77
2023/03/17 04:25:53;;;;;;;10.02;4.75;;;4.90;99.90;;;;;;4946450;28;20050;-78
2023/03/17 04:28:19;;;;;;;7.60;4.97;;;4.90;99.90;;;;;;4946098;28;20169;-79
2023/03/17 04:30:45;;;;;;;10.15;4.22;;;4.90;99.90;;;;;;4951796;28;20027;-78
2023/03/17 04:33:11;;;;;;;7.28;4.20;;;4.90;99.90;;;;;;4954190;28;20038;-77
2023/03/17 04:35:37;;;;;;;8.95;4.80;;;4.90;99.90;;;;;;4950114;28;20027;-76
2023/03/17 04:38:02;;;;;;;10.60;4.55;;;4.80;99.90;;;;;;4952574;28;20484;-77
2023/03/17 04:40:28;;;;;;;8.68;4.30;;;4.80;99.90;;;;;;4953291;28;20067;-78
2023/03/17 04:42:54;;;;;;;8.43;3.95;;;4.80;99.90;;;;;;4949128;28;20047;-78
2023/03/17 04:45:20;;;;;;;9.75;4.70;;;4.80;99.90;;;;;;4949685;28;20023;-76
2023/03/17 04:47:46;;;;;;;5.57;4.03;;;4.80;99.90;;;;;;4950772;28;20031;-79
2023/03/17 04:50:12;;;;;;;8.05;4.30;;;4.80;99.90;;;;;;4952450;28;20027;-77
2023/03/17 04:52:38;;;;;;;6.85;4.10;;;4.70;99.90;;;;;;4954174;28;20031;-76
2023/03/17 04:55:07;;;;;;;9.75;4.15;;;4.70;99.90;;;;;;4952490;28;20090;-77
2023/03/17 04:57:33;;;;;;;7.80;4.03;;;4.60;99.90;;;;;;4952285;28;20086;-77
2023/03/17 04:59:58;;;;;;;7.32;3.67;;;4.60;99.90;;;;;;4950458;28;20035;-77
2023/03/17 05:02:25;;;;;;;6.93;4.43;;;4.70;99.90;;;;;;4949312;28;20031;-76
2023/03/17 05:04:50;;;;;;;7.95;3.95;;;4.60;99.90;;;;;;4953334;28;20050;-76
2023/03/17 05:07:16;;;;;;;9.07;3.85;;;4.60;99.90;;;;;;4949928;28;20043;-76
2023/03/17 05:09:42;;;;;;;7.30;4.15;;;4.60;99.90;;;;;;4952669;28;20035;-76
2023/03/17 05:12:08;;;;;;;9.75;4.05;;;4.50;99.90;;;;;;4952462;28;20063;-77
2023/03/17 05:14:34;;;;;;;6.47;3.75;;;4.50;99.90;;;;;;4948876;28;20710;-77
2023/03/17 05:17:00;;;;;;;6.80;3.60;;;4.50;99.90;;;;;;4947574;28;20055;-77
2023/03/17 05:19:26;;;;;;;5.65;3.58;;;4.40;99.90;;;;;;4948540;28;20503;-76
2023/03/17 05:21:52;;;;;;;7.90;3.60;;;4.40;99.90;;;;;;4952182;28;20030;-77
2023/03/17 05:24:17;;;;;;;6.72;4.15;;;4.40;99.90;;;;;;4949543;28;20547;-77
2023/03/17 05:26:43;;;;;;;8.68;4.20;;;4.40;99.90;;;;;;4950808;28;20038;-78
2023/03/17 05:29:09;;;;;;;10.63;4.57;;;4.40;99.90;;;;;;4946711;28;20114;-77
2023/03/17 05:31:36;;;;;;;8.82;4.22;;;4.30;99.90;;;;;;4952631;28;20035;-77
2023/03/17 05:34:02;;;;;;;7.20;4.50;;;4.30;99.90;;;;;;4953991;28;20031;-76
2023/03/17 05:36:27;;;;;;;10.77;5.15;;;4.30;99.90;;;;;;4950640;28;20031;-76
2023/03/17 05:38:53;;;;;;;9.05;3.92;;;4.30;99.90;;;;;;4945563;28;20019;-77
2023/03/17 05:41:19;;;;;;;8.20;4.13;;;4.30;99.90;;;;;;4953873;28;20019;-76
2023/03/17 05:43:44;;;;;;;10.27;4.60;;;4.30;99.90;;;;;;4952465;28;20061;-77
2023/03/17 05:46:10;;;;;;;7.53;4.25;;;4.30;99.90;;;;;;4950733;28;20114;-77
2023/03/17 05:48:36;;;;;;;6.50;4.15;;;4.30;99.90;;;;;;4953906;28;20246;-77
2023/03/17 05:51:02;;;;;;;11.05;4.05;;;4.30;99.90;;;;;;4947490;28;20135;-77
2023/03/17 05:53:28;;;;;;;8.35;3.38;;;4.30;99.90;;;;;;4952323;28;20082;-75
2023/03/17 05:55:54;;;;;;;7.53;4.07;;;4.30;99.90;;;;;;4952137;28;20042;-79
2023/03/17 05:58:21;;;;;;;9.93;4.47;;;4.30;99.90;;;;;;4963285;28;20063;-77
2023/03/17 06:00:46;;;;;;;8.40;3.22;;;4.30;99.90;;;;;;4951632;28;20590;-77
2023/03/17 06:03:12;;;;;;;5.80;3.45;;;4.30;99.90;;;;;;4950908;28;20027;-77
2023/03/17 06:05:38;;;;;;;7.22;3.63;;;4.40;99.90;;;;;;4950853;28;20023;-78
2023/03/17 06:08:04;;;;;;;5.45;3.70;;;4.40;99.90;;;;;;4953360;28;20115;-77
2023/03/17 06:10:30;;;;;;;4.35;3.13;;;4.40;99.90;;;;;;4956037;28;20023;-78
2023/03/17 06:12:57;;;;;;;8.77;3.92;;;4.50;99.90;;;;;;4952633;28;20027;-78
2023/03/17 06:15:23;;;;;;;5.72;2.80;;;4.50;99.90;;;;;;4953595;28;20027;-76
2023/03/17 06:17:49;;;;;;;5.90;3.28;;;4.50;99.90;;;;;;4953099;28;20098;-78
2023/03/17 06:20:15;;;;;;;6.60;3.35;;;4.60;99.90;;;;;;4965099;28;20515;-77
2023/03/17 06:22:41;;;;;;;7.22;3.50;;;4.60;99.90;;;;;;4952050;28;20437;-77
2023/03/17 06:25:09;;;;;;;8.40;3.53;;;4.60;99.90;;;;;;4955570;28;20057;-77
2023/03/17 06:27:36;;;;;;;7.18;3.90;;;4.70;99.90;;;;;;4954723;28;20023;-78
2023/03/17 06:30:03;;;;;;;6.97;3.72;;;4.70;99.90;;;;;;4957603;28;20121;-77
2023/03/17 06:32:29;;;;;;;6.40;3.90;;;4.70;99.90;;;;;;4963018;28;20433;-78
2023/03/17 06:34:55;;;;;;;6.53;4.03;;;4.80;99.90;;;;;;4951697;28;20027;-77
2023/03/17 06:37:21;;;;;;;6.50;3.63;;;4.80;99.90;;;;;;4968114;28;20110;-77
2023/03/17 06:39:47;;;;;;;8.18;4.47;;;4.90;99.90;;;;;;4951491;28;20050;-78
2023/03/17 06:42:13;;;;;;;8.20;3.75;;;4.90;99.90;;;;;;4966876;28;20096;-77
2023/03/17 06:44:39;;;;;;;12.35;4.18;;;4.90;99.90;;;;;;4954865;28;20042;-78
2023/03/17 06:47:05;;;;;;;8.50;3.72;;;4.90;99.90;;;;;;4954230;28;20027;-77
2023/03/17 06:49:31;;;;;;;9.85;4.78;;;5.00;99.90;;;;;;4958852;28;20042;-77
2023/03/17 06:51:57;;;;;;;6.80;3.80;;;5.00;99.90;;;;;;4952840;28;20133;-77
2023/03/17 06:54:24;;;;;;;7.00;3.88;;;5.10;99.90;;;;;;4954240;28;20035;-77
2023/03/17 06:56:51;;;;;;;10.98;4.53;;;5.10;99.90;;;;;;4953685;28;20512;-77
2023/03/17 06:59:17;;;;;;;12.25;4.18;;;5.20;99.90;;;;;;4955805;28;20039;-78
2023/03/17 07:01:44;;;;;;;8.20;4.55;;;5.30;99.90;;;;;;4956839;28;20031;-77
2023/03/17 07:04:10;;;;;;;10.57;4.28;;;5.40;99.90;;;;;;4954305;28;20063;-77
2023/03/17 07:06:36;;;;;;;12.38;5.18;;;5.50;99.90;;;;;;4956455;28;20129;-77
2023/03/17 07:09:02;;;;;;;15.00;5.20;;;5.50;99.90;;;;;;4963429;28;20027;-77
2023/03/17 07:11:29;;;;;;;8.60;4.85;;;5.60;99.90;;;;;;4959300;28;20430;-77
2023/03/17 07:13:55;;;;;;;8.98;4.40;;;5.70;99.90;;;;;;4964324;28;20034;-77
2023/03/17 07:16:21;;;;;;;10.10;4.28;;;5.80;99.90;;;;;;4957029;28;20093;-77
2023/03/17 07:18:47;;;;;;;9.57;5.38;;;5.90;99.90;;;;;;4971112;28;20031;-76
2023/03/17 07:21:13;;;;;;;7.75;4.07;;;6.00;99.90;;;;;;4957635;28;20027;-76
2023/03/17 07:23:39;;;;;;;11.07;4.43;;;6.00;99.90;;;;;;4963783;28;20027;-77
2023/03/17 07:26:04;;;;;;;10.63;4.63;;;6.10;99.90;;;;;;4959727;28;20059;-78
2023/03/17 07:28:30;;;;;;;8.30;4.40;;;6.10;99.90;;;;;;4966222;28;20035;-77
2023/03/17 07:30:56;;;;;;;10.35;5.07;;;6.20;99.90;;;;;;4970147;28;20034;-76
2023/03/17 07:33:23;;;;;;;12.65;5.07;;;6.30;99.90;;;;;;4967603;28;20012;-76
2023/03/17 07:35:50;;;;;;;12.27;5.47;;;6.30;99.90;;;;;;4971644;28;20022;-76
2023/03/17 07:38:17;;;;;;;8.73;4.70;;;6.40;99.90;;;;;;4972015;28;20035;-77
2023/03/17 07:40:46;;;;;;;12.20;4.88;;;6.50;99.90;;;;;;4972209;28;20046;-77
2023/03/17 07:43:12;;;;;;;12.25;5.43;;;6.50;99.90;;;;;;4967023;28;20814;-77
2023/03/17 07:45:38;;;;;;;10.60;5.07;;;6.60;99.90;;;;;;4960946;28;20082;-75
2023/03/17 07:48:05;;;;;;;10.90;5.90;;;6.70;99.90;;;;;;4955681;28;20027;-76
2023/03/17 07:50:35;;;;;;;7.80;4.53;;;6.70;99.90;;;;;;4964641;28;20090;-76
2023/03/17 07:53:02;;;;;;;7.28;5.07;;;6.80;99.90;;;;;;4968364;28;20627;-77
2023/03/17 07:55:28;;;;;;;11.50;5.22;;;6.90;99.90;;;;;;4967528;28;20063;-75
2023/03/17 07:57:54;;;;;;;9.35;4.50;;;7.00;99.90;;;;;;4964195;28;20020;-76
2023/03/17 08:00:22;;;;;;;11.75;4.20;;;7.10;99.90;;;;;;4964163;28;20029;-75
2023/03/17 08:02:49;;;;;;;12.40;4.35;;;7.20;99.90;;;;;;4961025;28;20054;-76
2023/03/17 08:05:15;;;;;;;12.43;4.40;;;7.20;99.90;;;;;;4963350;28;20034;-76
2023/03/17 08:07:41;;;;;;;8.85;4.78;;;7.30;99.90;;;;;;4964824;28;20985;-76
2023/03/17 08:10:07;;;;;;;9.40;4.15;;;7.40;99.90;;;;;;4969185;28;20033;-76
2023/03/17 08:12:34;;;;;;;9.82;4.38;;;7.40;99.90;;;;;;4981912;28;20035;-76
2023/03/17 08:14:59;;;;;;;6.97;4.15;;;7.60;99.90;;;;;;4969604;28;20067;-77
2023/03/17 08:17:26;;;;;;;11.32;4.57;;;7.60;99.90;;;;;;4968214;28;20616;-76
2023/03/17 08:19:55;;;;;;;18.20;4.85;;;7.70;99.90;;;;;;4975289;28;20046;-77
2023/03/17 08:22:21;;;;;;;11.35;4.55;;;7.70;99.90;;;;;;4964483;28;20530;-76
2023/03/17 08:24:47;;;;;;;8.75;3.85;;;7.90;99.90;;;;;;4954072;28;20037;-76
2023/03/17 08:27:13;;;;;;;11.02;4.53;;;7.90;99.90;;;;;;4958491;28;20027;-76
2023/03/17 08:29:39;;;;;;;8.63;4.13;;;8.00;99.90;;;;;;4969645;28;20035;-76
2023/03/17 08:32:05;;;;;;;11.52;4.63;;;8.10;99.90;;;;;;4966713;28;20042;-75
2023/03/17 08:34:32;;;;;;;8.98;3.65;;;8.20;99.90;;;;;;4972448;28;20035;-77
2023/03/17 08:36:59;;;;;;;12.50;3.97;;;8.30;99.90;;;;;;4964991;28;20065;-76
2023/03/17 08:39:25;;;;;;;12.30;4.35;;;8.40;99.90;;;;;;4959337;28;20023;-76
2023/03/17 08:41:51;;;;;;;7.82;3.67;;;8.50;99.90;;;;;;4954888;28;20034;-76
2023/03/17 08:44:17;;;;;;;6.03;3.60;;;8.50;99.90;;;;;;4957804;28;20402;-76
2023/03/17 08:46:43;;;;;;;10.48;4.45;;;8.60;99.90;;;;;;4955991;28;20169;-76
2023/03/17 08:49:09;;;;;;;10.20;3.72;;;8.60;99.90;;;;;;4974180;28;20039;-75
2023/03/17 08:51:37;;;;;;;10.27;4.00;;;8.70;99.90;;;;;;4959296;28;20034;-75
2023/03/17 08:54:04;;;;;;;7.80;3.38;;;8.70;99.90;;;;;;4960879;28;20023;-76
2023/03/17 08:56:30;;;;;;;6.10;3.72;;;8.80;99.90;;;;;;4960470;28;20050;-76
2023/03/17 08:58:56;;;;;;;7.20;3.72;;;8.80;99.90;;;;;;4957208;28;20853;-76
2023/03/17 09:01:23;;;;;;;5.60;3.80;;;8.90;99.90;;;;;;4962882;28;20029;-76
2023/03/17 09:03:53;;;;;;;11.77;4.22;;;8.90;99.90;;;;;;4970890;28;20538;-75
2023/03/17 09:06:20;;;;;;;6.00;3.97;;;9.00;99.90;;;;;;4967600;28;20042;-77
2023/03/17 09:08:46;;;;;;;7.75;3.92;;;9.10;99.90;;;;;;4967511;28;20023;-76
2023/03/17 09:11:19;;;;;;;11.88;4.88;;;9.20;99.90;;;;;;4964969;28;20113;-77
2023/03/17 09:13:46;;;;;;;9.35;3.42;;;9.30;99.90;;;;;;4966921;28;20023;-76
2023/03/17 09:16:13;;;;;;;9.27;3.92;;;9.40;99.90;;;;;;4964979;28;20055;-76
2023/03/17 09:18:39;;;;;;;8.85;3.53;;;9.40;99.90;;;;;;4965803;28;20023;-76
2023/03/17 09:21:06;;;;;;;6.93;3.63;;;9.50;99.90;;;;;;4968733;28;20074;-76
2023/03/17 09:23:32;;;;;;;11.23;3.88;;;9.50;99.90;;;;;;4959700;28;20038;-77
2023/03/17 09:25:58;;;;;;;7.65;3.10;;;9.50;99.90;;;;;;4965725;28;20038;-75
2023/03/17 09:28:24;;;;;;;8.10;3.15;;;9.60;99.90;;;;;;4964190;28;20031;-74
2023/03/17 09:30:50;;;;;;;10.77;3.40;;;9.60;99.90;;;;;;4965329;28;20252;-77
2023/03/17 09:33:16;;;;;;;13.52;3.53;;;9.60;99.80;;;;;;4965567;28;20040;-76
2023/03/17 09:35:42;;;;;;;7.28;4.20;;;9.60;99.90;;;;;;4964370;28;20020;-76
2023/03/17 09:38:09;;;;;;;6.35;3.15;;;9.60;99.90;;;;;;4965782;28;20499;-76
2023/03/17 09:40:50;;;;;;;7.68;3.67;;;9.70;99.90;;;;;;4965139;28;20111;-76
2023/03/17 09:44:00;;;;;;;8.20;3.30;;;9.80;99.90;;;;;;4968214;28;20031;-76
2023/03/17 09:46:44;;;;;;;11.68;4.10;;;9.90;99.50;;;;;;4941211;28;20121;-76
2023/03/17 09:49:24;;;;;;;6.65;3.40;;;10.20;99.20;;;;;;4979766;28;20091;-75
2023/03/17 09:51:50;;;;;;;7.40;3.03;;;10.40;98.90;;;;;;4961061;28;20031;-75
2023/03/17 09:54:26;;;;;;;13.13;4.47;;;10.50;98.80;;;;;;4964214;28;20065;-76
2023/03/17 09:57:13;;;;;;;7.70;3.50;;;10.70;98.30;;;;;;4976898;28;20050;-75
2023/03/17 09:59:43;;;;;;;7.65;4.25;;;10.80;97.80;;;;;;4968883;28;20031;-77
2023/03/17 10:02:29;;;;;;;6.50;2.65;;;11.00;98.00;;;;;;4965438;28;20023;-75
2023/03/17 10:04:56;;;;;;;8.73;3.60;;;11.10;97.50;;;;;;4963067;28;20062;-75
2023/03/17 10:07:58;;;;;;;7.85;3.00;;;11.20;96.50;;;;;;4975960;28;20035;-76
2023/03/17 10:10:48;;;;;;;6.53;3.00;;;11.30;96.40;;;;;;4962436;28;20023;-76
2023/03/17 10:13:38;;;;;;;7.43;3.22;;;11.50;96.20;;;;;;4968862;28;20087;-75
2023/03/17 10:16:13;;;;;;;6.22;3.17;;;11.60;95.70;;;;;;4962829;28;20022;-77
2023/03/17 10:19:00;;;;;;;6.32;2.90;;;11.70;95.40;;;;;;4972944;28;20069;-75
2023/03/17 10:21:33;;;;;;;6.30;2.78;;;11.90;95.50;;;;;;4961731;28;20046;-75
2023/03/17 10:24:02;;;;;;;6.73;3.13;;;11.90;95.30;;;;;;4959271;28;20045;-76
2023/03/17 10:26:40;;;;;;;8.25;3.08;;;12.10;94.70;;;;;;4983972;28;20284;-75
2023/03/17 10:29:16;;;;;;;9.00;2.90;;;12.20;94.30;;;;;;4972241;28;20031;-75
2023/03/17 10:31:43;;;;;;;8.93;3.60;;;12.30;94.90;;;;;;4972254;28;20030;-76
2023/03/17 10:34:22;;;;;;;4.57;2.92;;;12.50;94.00;;;;;;4969361;28;20027;-77
2023/03/17 10:36:52;;;;;;;10.43;3.17;;;12.60;93.50;;;;;;4969159;28;20031;-75
2023/03/17 10:39:20;;;;;;;5.18;3.22;;;12.70;92.90;;;;;;4968973;28;20074;-76
2023/03/17 10:41:57;;;;;;;5.25;2.70;;;12.90;92.80;;;;;;4969268;28;20118;-75
2023/03/17 10:44:39;;;;;;;5.70;2.55;;;13.00;92.30;;;;;;4980587;28;20027;-77
2023/03/17 10:47:05;;;;;;;6.38;2.90;;;13.10;92.10;;;;;;4986663;28;20035;-76
2023/03/17 10:49:35;;;;;;;13.40;3.45;;;13.20;91.50;;;;;;4969973;28;20037;-75
2023/03/17 10:52:06;;;;;;;7.25;2.95;;;13.30;91.20;;;;;;4969629;28;20015;-77
2023/03/17 10:54:35;;;;;;;7.70;2.80;;;13.40;91.00;;;;;;4978951;28;20036;-76
2023/03/17 10:57:05;;;;;;;7.25;3.22;;;13.50;90.80;;;;;;4964304;28;20478;-75
2023/03/17 10:59:40;;;;;;;8.68;2.70;;;13.50;90.60;;;;;;4965603;28;20110;-76
2023/03/17 11:02:29;;;;;;;6.90;2.60;;;13.60;89.70;;;;;;4968114;28;20019;-75
2023/03/17 11:05:02;;;;;;;4.82;2.90;;;13.80;89.50;;;;;;4968311;28;20035;-75
2023/03/17 11:07:40;;;;;;;6.97;3.10;;;13.90;88.90;;;;;;4970630;28;20035;-77
2023/03/17 11:10:24;;;;;;;7.22;3.00;;;14.00;89.70;;;;;;4966942;28;20019;-76
2023/03/17 11:13:00;;;;;;;4.78;2.50;;;14.20;88.60;;;;;;4968809;28;20049;-77
2023/03/17 11:15:34;;;;;;;11.25;3.13;;;14.40;88.20;;;;;;4969464;28;20097;-77
2023/03/17 11:18:21;;;;;;;6.55;3.13;;;14.50;87.10;;;;;;4967929;28;20027;-75
2023/03/17 11:20:58;;;;;;;9.50;3.10;;;14.60;87.40;;;;;;4964431;28;20266;-76
2023/03/17 11:23:46;;;;;;;4.80;3.15;;;14.70;86.80;;;;;;4966548;28;20016;-76
2023/03/17 11:26:24;;;;;;;6.95;2.35;;;14.90;86.70;;;;;;4969797;28;20095;-76
2023/03/17 11:29:07;;;;;;;4.78;2.67;;;14.90;87.20;;;;;;4965944;28;20035;-76
2023/03/17 11:31:50;;;;;;;10.07;3.38;;;15.10;86.80;;;;;;4964429;28;20030;-76
2023/03/17 11:34:32;;;;;;;4.90;2.45;;;15.20;86.30;;;;;;4969660;28;20078;-77
2023/03/17 11:37:16;;;;;;;6.43;2.55;;;15.20;85.50;;;;;;4965439;28;20075;-76
2023/03/17 11:40:06;;;;;;;5.07;2.00;;;15.40;85.40;;;;;;4970843;28;20027;-77
2023/03/17 11:42:57;;;;;;;3.75;2.05;;;15.40;84.70;;;;;;4963275;28;20030;-75
2023/03/17 11:45:32;;;;;;;7.47;2.85;;;15.50;84.60;;;;;;4967884;28;20071;-77
2023/03/17 11:48:38;;;;;;;7.47;2.58;;;15.50;84.70;;;;;;4965477;28;20119;-76
2023/03/17 11:51:30;;;;;;;10.23;2.42;;;15.60;83.50;;;;;;4970375;28;20034;-75
2023/03/17 11:54:02;;;;;;;9.00;2.53;;;15.60;83.30;;;;;;4965942;28;20041;-76
2023/03/17 11:57:00;;;;;;;6.10;2.08;;;15.60;83.30;;;;;;4968490;28;20149;-76
2023/03/17 11:59:40;;;;;;;7.97;2.72;;;15.70;83.00;;;;;;4959871;28;20030;-76
2023/03/17 12:02:52;;;;;;;6.35;2.67;;;15.70;83.40;;;;;;4957358;28;20116;-75
2023/03/17 12:05:28;;;;;;;4.82;2.00;;;15.70;83.50;;;;;;4964024;28;20047;-76
2023/03/17 12:08:18;;;;;;;6.20;1.90;;;15.70;83.30;;;;;;4952717;28;20031;-76
2023/03/17 12:10:53;;;;;;;5.25;2.35;;;15.90;82.90;;;;;;4961700;28;20034;-76
2023/03/17 12:13:28;;;;;;;4.07;2.05;;;16.00;82.70;;;;;;4950471;28;20027;-76
2023/03/17 12:16:26;;;;;;;5.85;2.10;;;16.10;81.90;;;;;;4962378;28;20045;-77
2023/03/17 12:19:10;;;;;;;2.88;1.70;;;16.20;81.30;;;;;;4966727;28;21337;-77
2023/03/17 12:21:44;;;;;;;3.92;2.00;;;16.40;81.80;;;;;;4961133;28;20061;-76
2023/03/17 12:24:17;;;;;;;5.28;2.20;;;16.40;81.20;;;;;;4959334;28;20081;-78
2023/03/17 12:27:20;;;;;;;5.20;2.10;;;16.50;80.90;;;;;;4961753;28;20026;-76
2023/03/17 12:29:56;;;;;;;6.70;2.30;;;16.60;80.90;;;;;;4957515;28;20079;-75
2023/03/17 12:32:32;;;;;;;5.10;1.88;;;16.60;80.50;;;;;;4960503;28;20055;-76
2023/03/17 12:35:15;;;;;;;4.10;2.10;;;16.70;80.40;;;;;;4972844;28;20050;-76
2023/03/17 12:37:41;;;;;;;2.53;1.58;;;16.80;80.20;;;;;;4968410;28;20099;-74
2023/03/17 12:40:19;;;;;;;4.63;1.52;;;16.90;80.70;;;;;;4971807;28;20039;-76
2023/03/17 12:43:14;;;;;;;3.85;1.60;;;17.00;79.20;;;;;;4972783;28;20022;-75
2023/03/17 12:46:01;;;;;;;3.60;1.65;;;17.10;78.70;;;;;;4960424;28;20039;-76
2023/03/17 12:48:44;;;;;;;6.85;1.60;;;17.10;78.10;;;;;;4954088;28;20024;-76
2023/03/17 12:51:19;;;;;;;4.47;2.10;;;17.10;78.30;;;;;;4955232;28;20027;-76
2023/03/17 12:53:47;;;;;;;3.25;1.90;;;17.20;78.50;;;;;;4951279;28;20110;-76
2023/03/17 12:56:21;;;;;;;4.88;2.00;;;17.20;78.60;;;;;;4949818;28;20865;-76
2023/03/17 12:58:50;;;;;;;;;;;17.20;78.40;;;;;;4946843;28;20027;-77
2023/03/17 13:01:36;;;;;;;4.40;1.83;;;17.30;77.40;;;;;;4952614;28;19910;-77
2023/03/17 13:04:04;;;;;;;3.47;1.85;;;17.40;78.40;;;;;;4953072;28;20027;-77
2023/03/17 13:06:44;;;;;;;4.38;2.17;;;17.40;78.50;;;;;;4952507;28;20039;-77
2023/03/17 13:09:31;;;;;;;2.65;1.67;;;17.50;79.30;;;;;;4948966;28;20506;-78